createdAt,value
2022-11-24T12:46:39.597Z,8.28
2022-11-24T12:49:13.185Z,8.25
2022-11-24T12:51:44.592Z,8.23
2022-11-24T12:54:13.414Z,8.32
2022-11-24T12:57:00.054Z,8.26
2022-11-24T12:59:56.888Z,8.23
2022-11-24T13:02:43.427Z,8.16
2022-11-24T13:05:20.293Z,8.11
2022-11-24T13:07:50.594Z,8.17
2022-11-24T13:10:46.463Z,8.14
2022-11-24T13:13:12.768Z,8.10
2022-11-24T13:16:07.057Z,8.12
2022-11-24T13:18:44.293Z,8.01
2022-11-24T13:21:30.512Z,8.02
2022-11-24T13:23:58.344Z,7.86
2022-11-24T13:26:29.898Z,8.07
2022-11-24T13:29:05.783Z,8.06
2022-11-24T13:31:41.067Z,7.93
2022-11-24T13:34:31.613Z,8.02
2022-11-24T13:37:31.292Z,7.91
2022-11-24T13:39:50.574Z,7.80
2022-11-24T13:42:41.627Z,7.85
2022-11-24T13:45:09.298Z,7.92
2022-11-24T13:47:43.747Z,7.81
2022-11-24T13:50:21.564Z,7.88
2022-11-24T13:53:01.215Z,7.93
2022-11-24T13:55:33.584Z,7.90
2022-11-24T13:58:25.966Z,7.93
2022-11-24T14:01:04.106Z,7.80
2022-11-24T14:03:36.355Z,7.93
2022-11-24T14:06:04.202Z,7.66
2022-11-24T14:08:32.702Z,7.74
2022-11-24T14:11:00.510Z,7.77
2022-11-24T14:13:47.114Z,7.76
2022-11-24T14:16:21.881Z,7.61
2022-11-24T14:18:52.216Z,7.64
2022-11-24T14:21:30.318Z,7.60
2022-11-24T14:23:58.833Z,7.69
2022-11-24T14:26:34.971Z,7.61
2022-11-24T14:29:15.517Z,7.80
2022-11-24T14:31:43.980Z,7.62
2022-11-24T14:34:11.478Z,7.51
2022-11-24T14:36:39.366Z,7.67
2022-11-24T14:39:06.769Z,7.68
2022-11-24T14:41:34.539Z,7.62
2022-11-24T14:44:05.623Z,7.66
2022-11-24T14:46:36.180Z,7.59
2022-11-24T14:49:03.571Z,7.73
2022-11-24T14:51:32.188Z,7.55
2022-11-24T14:54:07.228Z,7.62
2022-11-24T14:56:36.557Z,7.72
2022-11-24T14:59:04.019Z,7.70
2022-11-24T15:01:34.238Z,7.68
2022-11-24T15:04:22.072Z,7.70
2022-11-24T15:07:05.055Z,7.52
2022-11-24T15:09:32.678Z,7.58
2022-11-24T15:12:04.600Z,7.44
2022-11-24T15:14:48.186Z,7.66
2022-11-24T15:17:17.447Z,7.57
2022-11-24T15:19:45.095Z,7.60
2022-11-24T15:22:31.431Z,7.62
2022-11-24T15:24:58.882Z,7.64
2022-11-24T15:27:26.299Z,7.65
2022-11-24T15:29:53.673Z,7.66
2022-11-24T15:32:21.077Z,7.46
2022-11-24T15:34:48.486Z,7.44
2022-11-24T15:37:15.766Z,7.57
2022-11-24T15:39:44.441Z,7.65
2022-11-24T15:42:11.965Z,7.66
2022-11-24T15:44:39.562Z,7.63
2022-11-24T15:47:08.260Z,7.55
2022-11-24T15:49:35.791Z,7.67
2022-11-24T15:52:03.087Z,7.50
2022-11-24T15:54:30.873Z,7.40
2022-11-24T15:56:58.348Z,7.46
2022-11-24T15:59:25.748Z,7.51
2022-11-24T16:01:53.159Z,7.58
2022-11-24T16:04:20.663Z,7.62
2022-11-24T16:06:48.173Z,7.49
2022-11-24T16:09:16.188Z,7.43
2022-11-24T16:11:45.657Z,7.40
2022-11-24T16:14:13.369Z,7.44
2022-11-24T16:16:41.597Z,7.39
2022-11-24T16:19:09.464Z,7.43
2022-11-24T16:21:37.237Z,7.31
2022-11-24T16:24:04.770Z,7.33
2022-11-24T16:26:32.238Z,7.17
2022-11-24T16:29:00.191Z,7.40
2022-11-24T16:31:27.914Z,7.30
2022-11-24T16:33:55.373Z,7.13
2022-11-24T16:36:22.866Z,7.25
2022-11-24T16:38:50.289Z,7.37
2022-11-24T16:41:17.714Z,7.30
2022-11-24T16:43:45.266Z,7.31
2022-11-24T16:46:18.918Z,7.32
2022-11-24T16:48:46.934Z,7.08
2022-11-24T16:51:14.401Z,7.06
2022-11-24T16:53:41.825Z,7.12
2022-11-24T16:56:09.350Z,7.10
2022-11-24T16:58:37.367Z,6.98
2022-11-24T17:01:05.441Z,6.84
2022-11-24T17:03:33.947Z,7.03
2022-11-24T17:06:01.344Z,6.99
2022-11-24T17:08:32.411Z,7.01
2022-11-24T17:11:09.197Z,7.03
2022-11-24T17:13:36.781Z,7.04
2022-11-24T17:16:08.313Z,6.95
2022-11-24T17:18:35.821Z,6.97
2022-11-24T17:21:09.154Z,6.99
2022-11-24T17:23:37.368Z,7.00
2022-11-24T17:26:05.689Z,6.73
2022-11-24T17:28:33.828Z,6.82
2022-11-24T17:31:08.608Z,6.79
2022-11-24T17:33:36.367Z,6.90
2022-11-24T17:36:04.690Z,6.95
2022-11-24T17:38:32.245Z,6.84
2022-11-24T17:41:00.073Z,6.96
2022-11-24T17:43:27.711Z,6.91
2022-11-24T17:45:55.933Z,6.78
2022-11-24T17:48:23.590Z,6.91
2022-11-24T17:51:04.206Z,6.81
2022-11-24T17:53:39.202Z,6.78
2022-11-24T17:56:07.139Z,6.96
2022-11-24T17:58:39.721Z,7.05
2022-11-24T18:01:10.503Z,6.89
2022-11-24T18:03:38.880Z,6.76
2022-11-24T18:06:07.050Z,6.85
2022-11-24T18:08:40.589Z,6.78
2022-11-24T18:11:09.131Z,6.79
2022-11-24T18:16:25.775Z,6.73
2022-11-24T18:19:07.834Z,6.82
2022-11-24T18:21:40.919Z,6.65
2022-11-24T18:24:09.143Z,6.84
2022-11-24T18:26:36.753Z,6.86
2022-11-24T18:29:05.377Z,6.63
2022-11-24T18:31:35.522Z,6.73
2022-11-24T18:34:03.587Z,6.75
2022-11-24T18:36:33.971Z,6.58
2022-11-24T18:39:05.103Z,6.67
2022-11-24T18:41:32.611Z,6.74
2022-11-24T18:44:02.614Z,6.86
2022-11-24T18:46:30.207Z,6.62
2022-11-24T18:48:57.690Z,6.46
2022-11-24T18:51:25.509Z,6.45
2022-11-24T18:53:54.785Z,6.52
2022-11-24T18:56:22.581Z,6.57
2022-11-24T18:58:52.211Z,6.58
2022-11-24T19:01:24.866Z,6.46
2022-11-24T19:03:53.739Z,6.38
2022-11-24T19:06:28.788Z,6.47
2022-11-24T19:09:03.999Z,6.41
2022-11-24T19:11:39.805Z,6.60
2022-11-24T19:14:07.687Z,6.60
2022-11-24T19:16:35.269Z,6.70
2022-11-24T19:19:03.174Z,6.75
2022-11-24T19:21:33.595Z,6.78
2022-11-24T19:24:07.683Z,6.79
2022-11-24T19:26:36.673Z,6.81
2022-11-24T19:29:04.135Z,6.61
2022-11-24T19:31:31.982Z,6.65
2022-11-24T19:33:59.959Z,6.78
2022-11-24T19:36:29.812Z,6.66
2022-11-24T19:38:57.515Z,6.58
2022-11-24T19:41:28.745Z,6.74
2022-11-24T19:43:58.753Z,6.75
2022-11-24T19:46:27.588Z,6.63
2022-11-24T19:48:57.379Z,6.81
2022-11-24T19:51:30.864Z,6.63
2022-11-24T19:53:59.284Z,6.63
2022-11-24T19:56:29.160Z,6.68
2022-11-24T19:58:57.060Z,6.67
2022-11-24T20:01:31.404Z,6.75
2022-11-24T20:04:12.775Z,6.71
2022-11-24T20:06:40.628Z,6.79
2022-11-24T20:09:08.951Z,6.62
2022-11-24T20:11:37.187Z,6.76
2022-11-24T20:14:04.716Z,6.83
2022-11-24T20:16:32.690Z,6.85
2022-11-24T20:19:00.983Z,6.80
2022-11-24T20:21:29.073Z,6.78
2022-11-24T20:24:05.605Z,6.80
2022-11-24T20:26:34.080Z,6.89
2022-11-24T20:29:01.946Z,6.79
2022-11-24T20:31:30.798Z,6.91
2022-11-24T20:33:59.517Z,6.64
2022-11-24T20:36:30.347Z,6.80
2022-11-24T20:39:26.846Z,6.92
2022-11-24T20:41:55.323Z,6.78
2022-11-24T20:44:22.932Z,6.70
2022-11-24T20:46:50.680Z,6.77
2022-11-24T20:49:19.528Z,6.62
2022-11-24T20:51:47.982Z,6.78
2022-11-24T20:54:16.481Z,6.63
2022-11-24T20:56:44.198Z,6.80
2022-11-24T20:59:14.834Z,6.80
2022-11-24T21:01:43.051Z,6.80
2022-11-24T21:04:11.371Z,6.70
2022-11-24T21:06:39.233Z,6.81
2022-11-24T21:09:07.357Z,6.61
2022-11-24T21:11:35.227Z,6.66
2022-11-24T21:14:02.840Z,6.72
2022-11-24T21:16:31.428Z,6.78
2022-11-24T21:19:02.598Z,6.67
2022-11-24T21:21:34.175Z,6.59
2022-11-24T21:24:02.817Z,6.77
2022-11-24T21:26:30.314Z,6.70
2022-11-24T21:28:59.425Z,6.76
2022-11-24T21:31:26.895Z,6.62
2022-11-24T21:33:54.567Z,6.76
2022-11-24T21:36:23.325Z,6.56
2022-11-24T21:38:55.583Z,6.62
2022-11-24T21:41:23.384Z,6.61
2022-11-24T21:43:51.697Z,6.64
2022-11-24T21:46:19.041Z,6.77
2022-11-24T21:48:47.494Z,6.81
2022-11-24T21:51:16.470Z,6.67
2022-11-24T21:53:44.369Z,6.73
2022-11-24T21:56:13.565Z,6.70
2022-11-24T21:58:45.138Z,6.72
2022-11-24T22:01:12.754Z,6.60
2022-11-24T22:03:40.484Z,6.65
2022-11-24T22:06:08.141Z,6.57
2022-11-24T22:08:35.611Z,6.63
2022-11-24T22:11:04.532Z,6.62
2022-11-24T22:13:31.948Z,6.57
2022-11-24T22:16:00.505Z,6.71
2022-11-24T22:18:30.341Z,6.66
2022-11-24T22:20:57.665Z,6.63
2022-11-24T22:23:25.371Z,6.45
2022-11-24T22:25:52.707Z,6.50
2022-11-24T22:28:20.387Z,6.50
2022-11-24T22:30:47.988Z,6.44
2022-11-24T22:33:15.808Z,6.60
2022-11-24T22:35:43.151Z,6.52
2022-11-24T22:38:10.543Z,6.55
2022-11-24T22:40:38.571Z,6.42
2022-11-24T22:43:05.926Z,6.52
2022-11-24T22:45:33.316Z,6.60
2022-11-24T22:48:01.532Z,6.42
2022-11-24T22:50:28.965Z,6.53
2022-11-24T22:52:56.296Z,6.45
2022-11-24T22:55:23.662Z,6.62
2022-11-24T22:57:54.506Z,6.54
2022-11-24T23:00:25.879Z,6.46
2022-11-24T23:02:55.125Z,6.58
2022-11-24T23:05:22.693Z,6.51
2022-11-24T23:07:50.393Z,6.52
2022-11-24T23:10:18.048Z,6.47
2022-11-24T23:12:46.529Z,6.55
2022-11-24T23:15:13.900Z,6.48
2022-11-24T23:17:41.421Z,6.51
2022-11-24T23:20:09.059Z,6.63
2022-11-24T23:22:36.730Z,6.44
2022-11-24T23:25:04.542Z,6.51
2022-11-24T23:27:32.388Z,6.46
2022-11-24T23:29:59.780Z,6.46
2022-11-24T23:32:27.092Z,6.56
2022-11-24T23:34:54.476Z,6.47
2022-11-24T23:37:34.360Z,6.62
2022-11-24T23:40:09.924Z,6.61
2022-11-24T23:42:37.362Z,6.49
2022-11-24T23:45:05.984Z,6.49
2022-11-24T23:47:34.290Z,6.46
2022-11-24T23:50:01.637Z,6.48
2022-11-24T23:52:30.301Z,6.47
2022-11-24T23:54:57.687Z,6.42
2022-11-24T23:57:25.146Z,6.54
2022-11-24T23:59:52.837Z,6.46
